航空気象通報

ウインドサーファーのための航空気象通報による風予報です。

6/30-7/2の航空気象通報

2017年06月30日 23時36分28秒 | TAF
羽田空港
TAF RJTT 301105Z 3012/0118 21010KT 9999 FEW010 SCT030
TEMPO 3020/3022 3000 SHRA BR FEW005 BKN008
TEMPO 3022/0103 4000 -SHRA BR FEW005 BKN008
BECMG 0112/0115 27004KT
TEMPO 0112/0118 FEW005 BKN008
日本時間30日21時-1日21時:210度から10ノットの風
21-24時:風が変化
2日00-03時:270度から4ノットの風

但し、1日05-07時の間:ときどき
但し、1日07-12時の間:ときどき
但し、1日21時-2日03時の間:ときどき

静岡空港
TAF RJNS 301105Z 3012/0118 25008KT 8000 -SHRA FEW008 BKN015
TEMPO 3015/0100 3000 -SHRA BR FEW005 BKN008
日本時間30日21時-2日03時:250度から8ノットの風


福岡空港
TAF RJFF 301106Z 3012/0118 15005KT 9999 FEW010 SCT030 BKN040
BECMG 0100/0103 31008KT
BECMG 0109/0112 15007KT
日本時間30日21時-1日09時:150度から5ノットの風
09-12時:風が変化
12-21時:310度から8ノットの風
21-24時:風が変化
2日00-03時:150度から7ノットの風


那覇空港
TAF ROAH 301106Z 3012/0118 18007KT 9999 FEW010
日本時間30日21時-2日03時:180度から7ノットの風


石垣空港
TAF ROIG 301108Z 3012/0118 15005KT 9999 FEW015
BECMG 0109/0112 11010KT
日本時間30日21時-1日18時:150度から5ノットの風
18-21時:風が変化
21時-2日03時:110度から10ノットの風


マウイのカフルイ空港
PHOG 301129Z 3012/0112 05010KT P6SM VCSH FEW030 BKN060
FM302000 05021G30KT P6SM FEW030 SCT050
FM010600 05012G20KT P6SM FEW030 BKN050 AMD LTD TO VIS AND WIND TIL 301600
ハワイ時間30日02-10時:050度から10ノットの風

10-20時:050度から21ノット、突風30ノット

20時-1日02時:050度から12ノット、突風20ノット


サイパン空港
TAF PGSN 301120Z 3012/0112 08011KT P6SM VCSH FEW017 SCT030
マリアナ時間30日22時-1日22時:080度から11ノットの風

コメント

6/28-6/30の航空気象通報

2017年06月29日 00時10分13秒 | TAF
羽田空港
TAF RJTT 281105Z 2812/2918 18006KT 8000 FEW008 BKN015
BECMG 2814/2816 05004KT
BECMG 2900/2903 11006KT
BECMG 2906/2909 17012KT
日本時間28日21-23時:180度から6ノットの風
23時-29日01時:風が変化
01-09時:050度から4ノットの風
09-12時:風が変化
12-15時:110度から6ノットの風
15-18時:風が変化
18時-30日03時:170度から12ノットの風


静岡空港
TAF RJNS 281105Z 2812/2918 32004KT 9000 FEW008 BKN012
TEMPO 2813/2820 FEW005 BKN008
BECMG 2900/2903 16006KT
BECMG 2909/2912 27004KT
日本時間28日21時-29日09時:320度から4ノットの風
09-12時:風が変化
12-18時:160度から6ノットの風
18-21時:風が変化
21時-30日03時:270度から4ノットの風


福岡空港
TAF RJFF 281110Z 2812/2918 31005KT 8000 -SHRA FEW015 SCT020 BKN030
BECMG 2816/2818 15004KT
TEMPO 2817/2900 4000 -SHRA BR
BECMG 2903/2906 32005KT
BECMG 2912/2915 15007KT
日本時間28日21時-29日01時:310度から5ノットの風
01-03時:風が変化
03-12時:150度から4ノットの風
12-15時:風が変化
15-21時:320度から5ノットの風
21-24時:風が変化
30日00-03時:150度から7ノットの風


那覇空港
TAF ROAH 281105Z 2812/2918 14005KT 9999 FEW010 SCT020
日本時間28日21時-30日03時:140度から5ノットの風


石垣空港
TAF ROIG 281108Z 2812/2918 17005KT 9999 FEW010 SCT020
BECMG 2820/2822 11008KT
TEMPO 2903/2906 SHRA FEW010 BKN015 FEW020CB
TEMPO 2915/2918 4000 SHRA FEW010 BKN015 FEW020CB
日本時間28日21時-29日05時:170度から5ノットの風
05-07時:風が変化
07時-30日03時:110度から8ノットの風

但し、29日12-15時の間:ときどき
但し、30日00-03時の間:ときどき

マウイのカフルイ空港
PHOG 281134Z 2812/2912 05010KT P6SM VCSH FEW025 SCT050 BKN250
FM281900 05015G24KT P6SM FEW030 SCT070
FM282200 05022G30KT P6SM FEW030 SCT070
FM290500 05013G22KT P6SM FEW030 SCT070
ハワイ時間28日02-09時:050度から10ノットの風

09-12時:050度から15ノット、突風24ノット
12-19時:050度から22ノット、突風30ノット
19時-29日02時:050度から13ノット、突風22ノット


サイパン空港
TAF AMD PGSN 281449Z 2815/2912 06011KT P6SM VCSH FEW016 SCT040 BKN120
TEMPO 2815/2819 09016KT 4SM SHRA SCT014 BKN025
FM282200 08014KT P6SM VCSH SCT020 SCT050
マリアナ時間28日22時-29日08時:060度から11ノットの風

但し、29日01-05時の間:ときどき
08-22時:080度から14ノットの風
コメント

6/27-6/29の航空気象通報

2017年06月28日 00時00分40秒 | TAF
羽田空港
TAF RJTT 271105Z 2712/2818 14006KT 9999 FEW015 BKN030
BECMG 2718/2720 36005KT
BECMG 2803/2806 14006KT
BECMG 2812/2815 32004KT
日本時間27日21時-28日03時:140度から6ノットの風
03-05時:風が変化
05-12時:360度から5ノットの風
12-15時:風が変化
15-21時:140度から6ノットの風
21-24時:風が変化
29日00-03時:320度から4ノットの風


静岡空港
TAF RJNS 271106Z 2712/2818 32004KT 9999 FEW015 BKN030
BECMG 2800/2803 18006KT
BECMG 2812/2815 27004KT
TEMPO 2812/2818 4000 BR FEW005 BKN008
日本時間27日21時-28日09時:320度から4ノットの風
09-12時:風が変化
12-21時:180度から6ノットの風
21-24時:風が変化
29日00-03時:270度から4ノットの風


福岡空港
TAF RJFF 271107Z 2712/2818 33005KT 8000 -SHRA FEW020 BKN035
BECMG 2712/2714 15004KT
TEMPO 2713/2721 4000 -SHRA BR FEW005 BKN008 BKN015
BECMG 2800/2803 32007KT
BECMG 2812/2815 15004KT
日本時間27日21時:330度から5ノットの風
21-23時:風が変化
23時-28日09時:150度から4ノットの風
09-12時:風が変化
12-21時:320度から7ノットの風
21-24時:風が変化
29日00-03時:150度から4ノットの風


那覇空港
TAF ROAH 271105Z 2712/2818 18010KT 9999 FEW008 SCT015
TEMPO 2712/2715 3000 TSRA FEW008 BKN015 FEW020CB
日本時間26日21時-29日03時:180度から10ノットの風

但し、27日21-24時の間:ときどき

石垣空港
TAF ROIG 271109Z 2712/2818 08005KT 9999 FEW008 SCT020
BECMG 2716/2718 17005KT
BECMG 2809/2812 11006KT
日本時間27日21時-28日01時:080度から5ノットの風
01-03時:風が変化
03-18時:170度から5ノットの風
18-21時:風が変化
21時-29日03時:110度から6ノットの風


マウイのカフルイ空港
PHOG 271140Z 2712/2812 06014G20KT P6SM FEW025 SCT050
FM272000 06022G30KT P6SM FEW030 SCT050
FM280500 05016KT P6SM FEW030 SCT045 AMD LTD TO VIS AND WIND TIL 271600
ハワイ時間27日02-10時:060度から14ノット、突風20ノット
10-19時:060度から22ノット、突風30ノット
19時-28日02時:050度から16ノットの風


サイパン空港
TAF PGSN 271133Z 2712/2812 09011KT P6SM VCSH SCT023
マリアナ時間27日22時-28日22時:090度から11ノットの風

コメント

6/26-6/28の航空気象通報

2017年06月26日 22時54分50秒 | TAF
羽田空港
TAF RJTT 261105Z 2612/2718 10006KT 8000 FEW008 BKN015
BECMG 2616/2618 02008KT
TEMPO 2618/2700 FEW005 BKN008
BECMG 2700/2703 08006KT
BECMG 2706/2709 18010KT
BECMG 2712/2715 08006KT
日本時間26日21時-27日01時:100度から6ノットの風
01-03時:風が変化
03-09時:020度から8ノットの風
09-12時:風が変化
12-15時:080度から6ノットの風
15-18時:風が変化
18-21時:180度から10ノットの風
21-24時:風が変化
27日00-03時:080度から6ノットの風


静岡空港
TAF RJNS 261107Z 2612/2718 34004KT 9999 FEW008 BKN015
TEMPO 2617/2622 FEW005 BKN008
BECMG 2700/2703 16008KT
TEMPO 2709/2715 4000 -RA BR FEW003 BKN005
BECMG 2712/2715 34004KT
日本時間26日21時-27日09時:340度から4ノットの風
09-12時:風が変化
12-21時:160度から8ノットの風
21-24時:風が変化
28日00-03時:340度から4ノットの風

但し、27日18-24時の間:ときどき

福岡空港
TAF RJFF 261105Z 2612/2718 32005KT 9999 FEW010 SCT015 BKN025
BECMG 2614/2616 15003KT
BECMG 2700/2703 32006KT
TEMPO 2709/2715 3000 SHRA BR FEW005 BKN008 BKN015
日本時間26日21-23時:320度から5ノットの風
23時-27日01時:風が変化
01-09時:150度から3ノットの風
09-12時:風が変化
12時-28日03時:320度から6ノットの風

但し、27日18-24時の間:ときどき

那覇空港
TAF ROAH 261111Z 2612/2718 20012KT 9999 FEW008 SCT010
TEMPO 2612/2614 3000 +TSRA FEW008 BKN015 FEW020CB
TEMPO 2615/2621 FEW006 BKN008
日本時間26日21時-28日03時:200度から12ノットの風

但し、26日21-23時の間:ときどき
但し、27日00-06時の間:ときどき

石垣空港
TAF ROIG 261113Z 2612/2718 17005KT 9999 FEW008 SCT015
TEMPO 2712/2718 FEW006 BKN008
日本時間26日21時-28日03時:170度から5ノットの風

但し、27日21時-28日03時の間:ときどき

マウイのカフルイ空港
PHOG 261120Z 2612/2712 VRB06KT P6SM FEW030 SCT045
TEMPO 2612/2616 BKN040
FM262000 05017G26KT P6SM FEW030 FEW050
FM270500 05009KT P6SM FEW025 FEW040 AMD LTD TO VIS AND WIND TIL 261600
ハワイ時間26日02-10時:風向不定6ノットの風
10-19時:050度から17ノット、突風26ノット
19時-27日02時:050度から9ノットの風


サイパン空港
TAF PGSN 261122Z 2612/2712 11011KT P6SM VCSH FEW020 BKN120
マリアナ時間26日22時-27日22時:110度から11ノットの風

コメント

6/25-6/27の航空気象通報

2017年06月25日 22時03分23秒 | TAF
羽田空港
TAF RJTT 251106Z 2512/2618 33006KT 9999 FEW010 BKN020
BECMG 2600/2603 12006KT
日本時間25日21時-26日09時:330度から6ノットの風
09-12時:風が変化
12時-26日03時:120度から6ノットの風


静岡空港
TAF RJNS 251109Z 2512/2618 26010KT 9999 FEW008 BKN012
TEMPO 2512/2514 FEW003 BKN005
BECMG 2600/2603 14006KT
BECMG 2609/2612 28004KT
日本時間25日21時-26日09時:260度から10ノットの風
09-12時:風が変化
12-18時:140度から6ノットの風
18-21時:風が変化
21時-27日03時:280度から4ノットの風


福岡空港
TAF RJFF 251108Z 2512/2618 31005KT 9999 FEW008 SCT015 BKN030
BECMG 2513/2515 16005KT
BECMG 2603/2606 32006KT
TEMPO 2609/2612 3000 -SHRA BR FEW005 BKN008 BKN010
BECMG 2612/2615 15003KT
日本時間25日21-22時:310度から5ノットの風
22-24時:風が変化
26日00-12時:160度から5ノットの風
12-15時:風が変化
15-21時:320度から6ノットの風
21-24時:風が変化
27日00-03時:150度から3ノットの風

但し、26日18-21時の間:ときどき

那覇空港
TAF ROAH 251105Z 2512/2618 20012KT 9999 FEW008 SCT015
TEMPO 2515/2521 FEW006 BKN008
日本時間25日21時-27日03時:200度から12ノットの風

但し、26日00-06時の間:ときどき

石垣空港
TAF ROIG 251110Z 2512/2618 19008KT 9999 FEW010 SCT020
BECMG 2603/2606 05008KT
日本時間25日21時-26日12時:190度から8ノットの風
12-15時:風が変化
15時-27日03時:050度から8ノットの風


マウイのカフルイ空港
PHOG 251120Z 2512/2612 06008KT P6SM FEW030 SCT050
FM252000 05017G23KT P6SM SCT030 SCT060
FM260600 08006KT P6SM FEW030 SCT050 AMD LTD TO VIS AND WIND TIL 251600
ハワイ時間25日02-10時:060度から8ノットの風
10-20時:050度から17ノット、突風23ノット
20時-26日02時:080度から6ノットの風


サイパン空港
TAF PGSN 251129Z 2512/2612 07012G18KT P6SM VCTS SCT015CB SCT045 BKN100
TEMPO 2512/2516 5SM -TSRA SCT012CB OVC030
FM252000 10013G20KT 6SM -SHRA SCT015 BKN030 OVC100
マリアナ時間25日22時-26日06時:070度から12ノット、突風18ノット
06-22時:100度から13ノット、突風20ノット

但し、25日22時-26日02時の間:ときどき
コメント